createdAt,value
2019-02-01T00:00:02.004Z,14.33
2019-02-01T00:00:46.315Z,14.45
2019-02-01T00:01:25.644Z,14.18
2019-02-01T00:02:02.243Z,14.83
2019-02-01T00:02:37.779Z,14.15
2019-02-01T00:03:13.649Z,14.63
2019-02-01T00:03:49.211Z,13.53
2019-02-01T00:04:24.883Z,14.53
2019-02-01T00:05:01.410Z,13.75
2019-02-01T00:05:37.283Z,13.73
2019-02-01T00:06:13.092Z,14.27
2019-02-01T00:06:48.626Z,13.68
2019-02-01T00:07:24.466Z,13.75
2019-02-01T00:08:00.962Z,13.48
2019-02-01T00:08:36.517Z,14.10
2019-02-01T00:09:12.439Z,14.03
2019-02-01T00:09:48.019Z,12.93
2019-02-01T00:10:23.594Z,13.47
2019-02-01T00:10:59.428Z,12.53
2019-02-01T00:11:34.972Z,13.77
2019-02-01T00:12:10.527Z,13.70
2019-02-01T00:12:46.106Z,13.57
2019-02-01T00:13:22.032Z,14.27
2019-02-01T00:13:58.291Z,13.07
2019-02-01T00:14:33.849Z,13.70
2019-02-01T00:15:09.399Z,12.93
2019-02-01T00:15:44.959Z,13.63
2019-02-01T00:16:20.501Z,13.30
2019-02-01T00:16:56.047Z,13.22
2019-02-01T00:17:31.834Z,12.87
2019-02-01T00:18:07.429Z,13.43
2019-02-01T00:18:43.952Z,13.60
2019-02-01T00:19:19.771Z,12.75
2019-02-01T00:19:55.302Z,13.40
2019-02-01T00:20:30.843Z,13.18
2019-02-01T00:21:06.398Z,12.53
2019-02-01T00:21:42.335Z,12.67
2019-02-01T00:22:17.882Z,12.78
2019-02-01T00:22:53.459Z,13.30
2019-02-01T00:23:28.991Z,13.18
2019-02-01T00:24:04.996Z,12.03
2019-02-01T00:24:40.528Z,12.80
2019-02-01T00:25:16.059Z,13.30
2019-02-01T00:25:51.616Z,12.53
2019-02-01T00:26:27.208Z,12.60
2019-02-01T00:27:02.745Z,12.60
2019-02-01T00:27:38.434Z,12.23
2019-02-01T00:28:13.968Z,12.78
2019-02-01T00:28:50.073Z,12.47
2019-02-01T00:29:25.716Z,12.40
2019-02-01T00:30:01.556Z,11.73
2019-02-01T00:30:37.188Z,12.45
2019-02-01T00:31:13.012Z,12.25
2019-02-01T00:31:48.580Z,12.28
2019-02-01T00:32:25.215Z,12.00
2019-02-01T00:33:00.762Z,11.83
2019-02-01T00:33:36.816Z,12.58
2019-02-01T00:34:12.473Z,11.60
2019-02-01T00:34:48.631Z,11.80
2019-02-01T00:35:24.173Z,11.70
2019-02-01T00:35:59.716Z,11.85
2019-02-01T00:36:35.372Z,12.20
2019-02-01T00:37:11.530Z,12.00
2019-02-01T00:37:47.095Z,11.28
2019-02-01T00:38:22.631Z,11.27
2019-02-01T00:38:58.245Z,11.80
2019-02-01T00:39:33.793Z,11.60
2019-02-01T00:40:09.343Z,12.58
2019-02-01T00:40:44.937Z,11.57
2019-02-01T00:41:20.797Z,11.22
2019-02-01T00:41:56.402Z,11.43
2019-02-01T00:42:31.975Z,11.20
2019-02-01T00:43:07.530Z,11.30
2019-02-01T00:43:43.728Z,12.58
2019-02-01T00:44:19.547Z,11.37
2019-02-01T00:44:56.062Z,11.80
2019-02-01T00:45:31.684Z,12.13
2019-02-01T00:46:07.341Z,11.03
2019-02-01T00:46:43.165Z,10.83
2019-02-01T00:47:18.671Z,11.40
2019-02-01T00:47:54.203Z,11.25
2019-02-01T00:48:29.726Z,10.77
2019-02-01T00:49:05.271Z,11.22
2019-02-01T00:49:41.128Z,10.17
2019-02-01T00:50:16.676Z,10.72
2019-02-01T00:50:52.219Z,10.65
2019-02-01T00:51:27.758Z,10.43
2019-02-01T00:52:04.307Z,11.00
2019-02-01T00:52:39.845Z,10.72
2019-02-01T00:53:16.761Z,10.35
2019-02-01T00:53:53.042Z,10.80
2019-02-01T00:54:28.558Z,11.50
2019-02-01T00:55:04.444Z,10.90
2019-02-01T00:55:40.347Z,11.60
2019-02-01T00:56:15.893Z,11.22
2019-02-01T00:56:51.413Z,10.93
2019-02-01T00:57:27.078Z,11.18
2019-02-01T00:58:02.643Z,10.37
2019-02-01T00:58:38.472Z,11.23
2019-02-01T00:59:14.004Z,10.97
2019-02-01T00:59:49.528Z,11.10
2019-02-01T01:00:25.254Z,10.53
2019-02-01T01:01:00.834Z,11.10
2019-02-01T01:01:36.370Z,10.50
2019-02-01T01:02:11.924Z,10.70
2019-02-01T01:02:47.456Z,11.73
2019-02-01T01:03:23.199Z,11.10
2019-02-01T01:03:58.863Z,10.50
2019-02-01T01:04:34.519Z,11.07
2019-02-01T01:05:10.387Z,11.03
2019-02-01T01:05:45.981Z,10.70
2019-02-01T01:06:21.524Z,10.57
2019-02-01T01:06:57.100Z,10.97
2019-02-01T01:07:32.614Z,11.10
2019-02-01T01:08:08.132Z,10.97
2019-02-01T01:08:43.689Z,11.73
2019-02-01T01:09:19.253Z,10.93
2019-02-01T01:09:54.991Z,11.20
2019-02-01T01:10:30.529Z,10.77
2019-02-01T01:11:06.501Z,11.45
2019-02-01T01:11:42.359Z,11.43
2019-02-01T01:12:17.968Z,10.83
2019-02-01T01:12:53.819Z,11.33
2019-02-01T01:13:30.069Z,10.90
2019-02-01T01:14:05.788Z,10.60
2019-02-01T01:14:41.357Z,10.87
2019-02-01T01:15:17.013Z,11.20
2019-02-01T01:15:52.563Z,10.93
2019-02-01T01:16:28.199Z,11.17
2019-02-01T01:17:03.721Z,10.53
2019-02-01T01:17:39.274Z,11.35
2019-02-01T01:18:23.484Z,11.30
2019-02-01T01:18:52.348Z,11.53
2019-02-01T01:19:27.883Z,10.97
2019-02-01T01:20:03.479Z,11.12
2019-02-01T01:20:39.107Z,11.83
2019-02-01T01:21:14.926Z,11.03
2019-02-01T01:21:50.467Z,11.43
2019-02-01T01:22:26.041Z,11.85
2019-02-01T01:23:01.650Z,11.68
2019-02-01T01:23:37.223Z,11.50
2019-02-01T01:24:13.432Z,11.27
2019-02-01T01:24:48.967Z,11.55
2019-02-01T01:25:24.915Z,11.17
2019-02-01T01:26:00.451Z,10.75
2019-02-01T01:26:36.001Z,11.40
2019-02-01T01:27:11.542Z,11.10
2019-02-01T01:27:47.112Z,11.30
2019-02-01T01:28:22.671Z,10.90
2019-02-01T01:28:58.225Z,11.47
2019-02-01T01:29:33.785Z,11.57
2019-02-01T01:30:12.497Z,10.93
2019-02-01T01:30:48.400Z,14.07
2019-02-01T01:31:24.234Z,11.83
2019-02-01T01:31:59.792Z,10.80
2019-02-01T01:32:35.422Z,11.60
2019-02-01T01:33:11.292Z,11.38
2019-02-01T01:33:46.830Z,11.70
2019-02-01T01:34:22.379Z,11.10
2019-02-01T01:34:57.911Z,11.73
2019-02-01T01:35:33.476Z,10.93
2019-02-01T01:36:09.299Z,10.97
2019-02-01T01:36:45.115Z,11.75
2019-02-01T01:37:20.679Z,11.30
2019-02-01T01:37:56.472Z,11.93
2019-02-01T01:38:32.341Z,11.22
2019-02-01T01:39:08.367Z,10.90
2019-02-01T01:39:44.358Z,11.60
2019-02-01T01:40:20.219Z,12.20
2019-02-01T01:40:55.799Z,12.03
2019-02-01T01:41:31.328Z,11.30
2019-02-01T01:42:06.871Z,12.50
2019-02-01T01:42:42.772Z,12.40
2019-02-01T01:43:18.583Z,11.43
2019-02-01T01:43:54.146Z,11.75
2019-02-01T01:44:29.654Z,11.80
2019-02-01T01:45:07.271Z,11.75
2019-02-01T01:45:43.050Z,11.55
2019-02-01T01:46:18.927Z,11.53
2019-02-01T01:46:54.572Z,12.10
2019-02-01T01:47:30.140Z,11.77
2019-02-01T01:48:05.856Z,12.20
2019-02-01T01:48:41.458Z,11.50
2019-02-01T01:49:17.645Z,12.28
2019-02-01T01:49:53.548Z,11.47
2019-02-01T01:50:29.376Z,12.40
2019-02-01T01:51:04.951Z,12.13
2019-02-01T01:51:40.602Z,11.60
2019-02-01T01:52:16.226Z,11.35
2019-02-01T01:52:52.123Z,12.35
2019-02-01T01:53:27.668Z,12.57
2019-02-01T01:54:03.222Z,11.57
2019-02-01T01:54:38.757Z,12.07
2019-02-01T01:55:14.333Z,11.78
2019-02-01T01:55:50.928Z,11.35
2019-02-01T01:56:26.533Z,11.60
2019-02-01T01:57:02.356Z,12.10
2019-02-01T01:57:37.886Z,12.77
2019-02-01T01:58:13.404Z,12.60
2019-02-01T01:58:49.226Z,11.43
2019-02-01T01:59:24.868Z,12.47
2019-02-01T02:00:00.486Z,11.70
2019-02-01T02:00:36.326Z,11.28
2019-02-01T02:01:12.155Z,12.03
2019-02-01T02:01:47.959Z,11.97
2019-02-01T02:02:23.627Z,11.75
2019-02-01T02:02:59.409Z,12.05
2019-02-01T02:03:35.031Z,12.40
2019-02-01T02:04:11.015Z,12.00
2019-02-01T02:04:46.920Z,12.20
2019-02-01T02:05:22.740Z,12.20
2019-02-01T02:05:58.651Z,12.17
2019-02-01T02:06:34.262Z,12.43
2019-02-01T02:07:09.862Z,11.80
2019-02-01T02:07:45.856Z,11.57
2019-02-01T02:08:21.480Z,12.37
2019-02-01T02:08:57.263Z,11.90
2019-02-01T02:09:33.425Z,11.93
2019-02-01T02:10:08.992Z,12.13
2019-02-01T02:10:44.516Z,11.07
2019-02-01T02:11:20.396Z,12.53
2019-02-01T02:11:55.935Z,12.10
2019-02-01T02:12:31.527Z,12.27
2019-02-01T02:13:07.435Z,12.10
2019-02-01T02:13:42.995Z,11.97
2019-02-01T02:14:18.640Z,12.03
2019-02-01T02:14:54.206Z,12.45
2019-02-01T02:15:29.767Z,11.97
2019-02-01T02:16:05.375Z,11.20
2019-02-01T02:16:40.951Z,12.03
2019-02-01T02:17:17.609Z,11.55
2019-02-01T02:17:53.300Z,11.88
2019-02-01T02:18:29.080Z,12.28
2019-02-01T02:19:04.636Z,11.30
2019-02-01T02:19:40.411Z,11.57
2019-02-01T02:20:17.458Z,12.80
2019-02-01T02:20:53.095Z,12.23
2019-02-01T02:21:28.895Z,12.50
2019-02-01T02:22:04.799Z,12.23
2019-02-01T02:22:40.356Z,12.28
2019-02-01T02:23:16.000Z,12.05
2019-02-01T02:23:51.499Z,12.20
2019-02-01T02:24:27.204Z,11.88
2019-02-01T02:25:02.787Z,12.33
2019-02-01T02:25:38.328Z,12.43
2019-02-01T02:26:13.921Z,12.20
2019-02-01T02:26:49.447Z,11.97
2019-02-01T02:27:25.321Z,12.83
2019-02-01T02:28:00.876Z,12.40
2019-02-01T02:28:37.381Z,11.38
2019-02-01T02:29:12.904Z,12.50
2019-02-01T02:29:48.435Z,12.10
2019-02-01T02:30:25.640Z,12.13
2019-02-01T02:31:01.480Z,11.77
2019-02-01T02:31:37.879Z,12.80
2019-02-01T02:32:13.438Z,12.60
2019-02-01T02:32:49.076Z,12.40
2019-02-01T02:33:24.619Z,12.37
2019-02-01T02:34:00.223Z,12.03
2019-02-01T02:34:36.272Z,12.33
2019-02-01T02:35:11.863Z,12.80
2019-02-01T02:35:47.392Z,12.78
2019-02-01T02:36:23.012Z,12.80
2019-02-01T02:36:58.539Z,12.40
2019-02-01T02:37:34.376Z,12.13
2019-02-01T02:38:10.039Z,12.90
2019-02-01T02:38:45.623Z,12.53
2019-02-01T02:39:21.429Z,12.20
2019-02-01T02:39:57.504Z,13.22
2019-02-01T02:40:33.502Z,12.45
2019-02-01T02:41:09.030Z,12.73
2019-02-01T02:41:44.639Z,12.83
2019-02-01T02:42:20.586Z,13.00
2019-02-01T02:42:56.184Z,12.47
2019-02-01T02:43:31.711Z,13.50
2019-02-01T02:44:07.272Z,13.17
2019-02-01T02:44:43.039Z,13.20
2019-02-01T02:45:18.784Z,13.22
2019-02-01T02:45:54.356Z,13.50
2019-02-01T02:46:29.896Z,14.25
2019-02-01T02:47:05.447Z,13.93
2019-02-01T02:47:41.469Z,13.80
2019-02-01T02:48:17.115Z,12.98
2019-02-01T02:49:00.010Z,14.10
2019-02-01T02:49:30.134Z,14.50
2019-02-01T02:50:07.494Z,14.57
2019-02-01T02:50:43.292Z,13.67
2019-02-01T02:51:18.848Z,13.30
2019-02-01T02:51:54.415Z,14.20
2019-02-01T02:52:30.229Z,14.10
2019-02-01T02:53:05.832Z,14.63
2019-02-01T02:53:41.345Z,13.93
2019-02-01T02:54:16.896Z,14.13
2019-02-01T02:54:52.406Z,14.85
2019-02-01T02:55:28.931Z,14.73
2019-02-01T02:56:05.169Z,13.72
2019-02-01T02:56:41.109Z,14.13
2019-02-01T02:57:16.706Z,14.00
2019-02-01T02:57:52.625Z,14.80
2019-02-01T02:58:28.436Z,13.48
2019-02-01T02:59:04.590Z,14.07
2019-02-01T02:59:40.135Z,13.63
2019-02-01T03:00:24.148Z,14.53
2019-02-01T03:00:59.958Z,13.50
2019-02-01T03:01:35.487Z,12.83
2019-02-01T03:02:11.564Z,13.20
2019-02-01T03:02:47.101Z,14.00
2019-02-01T03:03:22.635Z,13.83
2019-02-01T03:03:58.539Z,15.13
2019-02-01T03:04:34.125Z,14.57
2019-02-01T03:05:09.687Z,14.98
2019-02-01T03:05:45.233Z,15.20
2019-02-01T03:06:20.755Z,14.83
2019-02-01T03:06:56.292Z,15.07
2019-02-01T03:07:35.512Z,15.75
2019-02-01T03:08:11.788Z,15.18
2019-02-01T03:08:47.760Z,14.07
2019-02-01T03:09:23.372Z,14.63
2019-02-01T03:09:58.911Z,15.63
2019-02-01T03:10:34.694Z,15.67
2019-02-01T03:11:10.551Z,15.50
2019-02-01T03:11:46.256Z,16.43
2019-02-01T03:12:21.771Z,15.68
2019-02-01T03:12:57.495Z,15.20
2019-02-01T03:13:33.144Z,15.23
2019-02-01T03:14:08.731Z,15.33
2019-02-01T03:14:44.286Z,15.37
2019-02-01T03:15:20.441Z,16.87
2019-02-01T03:15:56.017Z,16.50
2019-02-01T03:16:31.568Z,15.27
2019-02-01T03:17:07.099Z,15.47
2019-02-01T03:17:42.806Z,16.50
2019-02-01T03:18:18.386Z,15.83
2019-02-01T03:18:53.993Z,16.17
2019-02-01T03:19:29.877Z,15.65
2019-02-01T03:20:06.128Z,16.60
2019-02-01T03:20:41.898Z,16.00
2019-02-01T03:21:17.567Z,14.73
2019-02-01T03:21:53.098Z,16.05
2019-02-01T03:22:28.642Z,17.55
2019-02-01T03:23:04.492Z,17.30
2019-02-01T03:23:39.998Z,16.90
2019-02-01T03:24:15.517Z,18.70
2019-02-01T03:24:51.343Z,16.00
2019-02-01T03:25:27.013Z,15.47
2019-02-01T03:26:02.535Z,16.73
2019-02-01T03:26:38.372Z,15.87
2019-02-01T03:27:13.894Z,17.10
2019-02-01T03:27:49.432Z,16.97
2019-02-01T03:28:24.996Z,16.17
2019-02-01T03:29:00.583Z,16.32
2019-02-01T03:29:36.795Z,16.42
2019-02-01T03:30:15.827Z,16.97
2019-02-01T03:30:51.331Z,16.80
2019-02-01T03:31:26.955Z,17.17
2019-02-01T03:32:02.773Z,18.20
2019-02-01T03:32:38.540Z,16.90
2019-02-01T03:33:14.338Z,16.90
2019-02-01T03:33:49.852Z,16.97
2019-02-01T03:34:25.404Z,19.17
2019-02-01T03:35:00.900Z,18.63
2019-02-01T03:35:37.412Z,18.13
2019-02-01T03:36:12.947Z,19.37
2019-02-01T03:36:48.572Z,18.03
2019-02-01T03:37:24.127Z,18.40
2019-02-01T03:37:59.747Z,17.37
2019-02-01T03:38:35.778Z,16.80
2019-02-01T03:39:11.368Z,19.15
2019-02-01T03:39:46.896Z,18.70
2019-02-01T03:40:22.627Z,17.20
2019-02-01T03:40:58.419Z,19.23
2019-02-01T03:41:34.260Z,18.50
2019-02-01T03:42:09.786Z,17.87
2019-02-01T03:42:45.338Z,19.13
2019-02-01T03:43:21.208Z,18.43
2019-02-01T03:43:56.828Z,19.30
2019-02-01T03:44:32.848Z,18.43
2019-02-01T03:45:10.358Z,18.27
2019-02-01T03:45:45.917Z,18.83
2019-02-01T03:46:21.835Z,21.97
2019-02-01T03:46:57.383Z,19.87
2019-02-01T03:47:32.918Z,17.52
2019-02-01T03:48:08.510Z,20.70
2019-02-01T03:48:44.116Z,19.70
2019-02-01T03:49:25.857Z,20.20
2019-02-01T03:49:57.285Z,19.03
2019-02-01T03:50:32.891Z,18.93
2019-02-01T03:51:08.456Z,19.03
2019-02-01T03:51:44.240Z,19.87
2019-02-01T03:52:19.796Z,19.53
2019-02-01T03:52:55.331Z,19.20
2019-02-01T03:53:30.883Z,21.00
2019-02-01T03:54:06.440Z,21.33
2019-02-01T03:54:41.969Z,21.27
2019-02-01T03:55:18.283Z,21.03
2019-02-01T03:55:53.810Z,20.43
2019-02-01T03:56:29.462Z,21.73
2019-02-01T03:57:04.988Z,20.53
2019-02-01T03:57:40.787Z,22.53
2019-02-01T03:58:16.334Z,20.53
2019-02-01T03:58:52.388Z,19.87
2019-02-01T03:59:28.203Z,20.80
2019-02-01T04:00:04.755Z,22.07
2019-02-01T04:00:40.320Z,20.90
2019-02-01T04:01:15.843Z,21.30
2019-02-01T04:01:51.931Z,20.87
2019-02-01T04:02:27.731Z,20.93
2019-02-01T04:03:04.231Z,23.07
2019-02-01T04:03:40.009Z,20.03
2019-02-01T04:04:15.563Z,23.33
2019-02-01T04:04:51.095Z,21.87
2019-02-01T04:05:26.669Z,19.63
2019-02-01T04:06:02.479Z,20.37
2019-02-01T04:06:38.203Z,20.33
2019-02-01T04:07:16.573Z,19.03
2019-02-01T04:07:51.080Z,22.57
2019-02-01T04:08:26.939Z,22.30
2019-02-01T04:09:03.763Z,22.17
2019-02-01T04:09:40.598Z,22.53
2019-02-01T04:10:18.098Z,21.73
2019-02-01T04:10:53.659Z,20.70
2019-02-01T04:11:29.212Z,21.30
2019-02-01T04:12:04.812Z,20.17
2019-02-01T04:12:40.453Z,22.67
2019-02-01T04:13:16.053Z,23.77
2019-02-01T04:13:51.579Z,23.93
2019-02-01T04:14:27.391Z,21.07
2019-02-01T04:15:02.906Z,23.75
2019-02-01T04:15:38.690Z,25.82
2019-02-01T04:16:14.233Z,27.87
2019-02-01T04:16:49.807Z,24.77
2019-02-01T04:17:25.390Z,23.55
2019-02-01T04:18:00.988Z,25.03
2019-02-01T04:18:36.570Z,23.57
2019-02-01T04:19:12.348Z,27.30
2019-02-01T04:19:50.511Z,27.80
2019-02-01T04:20:25.209Z,28.32
2019-02-01T04:21:00.851Z,30.02
2019-02-01T04:21:36.511Z,25.50
2019-02-01T04:22:12.448Z,27.37
2019-02-01T04:22:48.219Z,24.50
2019-02-01T04:23:23.903Z,27.10
2019-02-01T04:23:59.420Z,29.67
2019-02-01T04:24:35.228Z,36.83
2019-02-01T04:25:10.826Z,31.07
2019-02-01T04:25:46.422Z,31.73
2019-02-01T04:26:22.486Z,30.40
2019-02-01T04:26:58.052Z,35.73
2019-02-01T04:27:33.576Z,33.70
2019-02-01T04:28:09.261Z,25.80
2019-02-01T04:28:45.049Z,30.20
2019-02-01T04:29:20.563Z,30.97
2019-02-01T04:29:56.080Z,34.37
2019-02-01T04:30:31.934Z,29.10
2019-02-01T04:31:07.474Z,33.70
2019-02-01T04:31:43.104Z,33.38
2019-02-01T04:32:19.320Z,38.65
2019-02-01T04:32:54.933Z,38.02
2019-02-01T04:33:30.448Z,37.90
2019-02-01T04:34:06.195Z,48.25
2019-02-01T04:34:41.718Z,38.97
2019-02-01T04:35:17.263Z,43.50
2019-02-01T04:35:52.890Z,44.90
2019-02-01T04:36:28.513Z,45.30
2019-02-01T04:37:04.281Z,37.70
2019-02-01T04:37:39.855Z,37.20
2019-02-01T04:38:15.757Z,55.35
2019-02-01T04:38:51.367Z,40.60
2019-02-01T04:39:27.495Z,50.90
2019-02-01T04:40:03.105Z,41.27
2019-02-01T04:40:38.655Z,40.87
2019-02-01T04:41:14.180Z,41.20
2019-02-01T04:41:49.716Z,36.83
2019-02-01T04:42:25.276Z,44.20
2019-02-01T04:43:01.183Z,40.28
2019-02-01T04:43:36.758Z,47.03
2019-02-01T04:44:12.366Z,48.70
2019-02-01T04:44:47.912Z,47.47
2019-02-01T04:45:28.007Z,57.20
2019-02-01T04:46:03.533Z,58.17
2019-02-01T04:46:39.099Z,54.90
2019-02-01T04:47:14.923Z,44.30
2019-02-01T04:47:50.439Z,49.47
2019-02-01T04:48:28.935Z,51.55
2019-02-01T04:49:04.955Z,53.80
2019-02-01T04:49:40.463Z,49.50
2019-02-01T04:50:16.097Z,48.57
2019-02-01T04:50:51.636Z,46.80
2019-02-01T04:51:27.832Z,41.60
2019-02-01T04:52:03.439Z,50.00
2019-02-01T04:52:38.963Z,45.63
2019-02-01T04:53:15.094Z,43.33
2019-02-01T04:53:51.040Z,43.43
2019-02-01T04:54:26.683Z,59.58
2019-02-01T04:55:02.246Z,48.20
2019-02-01T04:55:37.781Z,48.80
2019-02-01T04:56:13.588Z,40.50
2019-02-01T04:56:49.322Z,49.87
2019-02-01T04:57:24.974Z,53.57
2019-02-01T04:58:00.745Z,52.03
2019-02-01T04:58:36.413Z,51.60
2019-02-01T04:59:12.285Z,55.37
2019-02-01T04:59:47.855Z,51.23
2019-02-01T05:00:33.683Z,54.47
2019-02-01T05:01:09.539Z,53.37
2019-02-01T05:01:45.155Z,53.30
2019-02-01T05:02:21.001Z,54.53
2019-02-01T05:02:56.692Z,53.00
2019-02-01T05:03:32.241Z,48.23
2019-02-01T05:04:08.022Z,53.20
2019-02-01T05:04:43.543Z,55.73
2019-02-01T05:05:19.321Z,52.43
2019-02-01T05:05:54.864Z,63.93
2019-02-01T05:06:30.415Z,50.57
2019-02-01T05:07:06.035Z,58.57
2019-02-01T05:07:41.927Z,63.37
2019-02-01T05:08:17.872Z,47.13
2019-02-01T05:08:56.506Z,55.03
2019-02-01T05:09:30.939Z,52.03
2019-02-01T05:10:07.614Z,55.70
2019-02-01T05:10:43.187Z,59.77
2019-02-01T05:11:18.703Z,50.50
2019-02-01T05:11:54.495Z,56.07
2019-02-01T05:12:30.193Z,55.43
2019-02-01T05:13:06.276Z,56.37
2019-02-01T05:13:41.793Z,48.60
2019-02-01T05:14:17.609Z,63.37
2019-02-01T05:14:53.439Z,60.00
2019-02-01T05:15:28.994Z,63.17
2019-02-01T05:16:04.593Z,56.43
2019-02-01T05:16:40.750Z,51.20
2019-02-01T05:17:16.524Z,56.33
2019-02-01T05:17:52.076Z,58.20
2019-02-01T05:18:27.942Z,57.43
2019-02-01T05:19:03.483Z,57.07
2019-02-01T05:19:39.297Z,52.73
2019-02-01T05:20:20.493Z,68.50
2019-02-01T05:20:53.919Z,56.77
2019-02-01T05:21:29.481Z,73.80
2019-02-01T05:22:05.059Z,60.03
2019-02-01T05:22:40.747Z,65.33
2019-02-01T05:23:16.349Z,62.43
2019-02-01T05:23:52.157Z,63.03
2019-02-01T05:24:28.043Z,57.13
2019-02-01T05:25:03.767Z,63.30
2019-02-01T05:25:39.675Z,60.63
2019-02-01T05:26:15.222Z,60.93
2019-02-01T05:26:50.829Z,57.07
2019-02-01T05:27:26.342Z,57.37
2019-02-01T05:28:01.931Z,51.07
2019-02-01T05:28:37.763Z,54.80
2019-02-01T05:29:13.322Z,73.10
2019-02-01T05:29:48.868Z,70.17
2019-02-01T05:30:24.408Z,53.87
2019-02-01T05:31:00.099Z,60.20
2019-02-01T05:31:35.642Z,56.73
2019-02-01T05:32:11.195Z,59.70
2019-02-01T05:32:46.733Z,69.53
2019-02-01T05:33:22.269Z,69.67
2019-02-01T05:33:57.803Z,52.00
2019-02-01T05:34:33.753Z,62.10
2019-02-01T05:35:10.649Z,63.90
2019-02-01T05:35:46.170Z,61.53
2019-02-01T05:36:21.686Z,60.10
2019-02-01T05:36:57.300Z,60.77
2019-02-01T05:37:33.089Z,59.15
2019-02-01T05:38:08.892Z,57.60
2019-02-01T05:38:44.417Z,61.43
2019-02-01T05:39:19.951Z,57.80
2019-02-01T05:39:57.325Z,63.37
2019-02-01T05:40:32.864Z,55.97
2019-02-01T05:41:08.659Z,53.07
2019-02-01T05:41:44.190Z,66.27
2019-02-01T05:42:19.980Z,58.73
2019-02-01T05:42:58.092Z,66.70
2019-02-01T05:43:32.834Z,61.85
2019-02-01T05:44:08.375Z,54.67
2019-02-01T05:44:44.217Z,59.27
2019-02-01T05:45:21.381Z,64.17
2019-02-01T05:45:56.992Z,55.47
2019-02-01T05:46:32.605Z,65.13
2019-02-01T05:47:08.388Z,54.25
2019-02-01T05:47:43.981Z,58.80
2019-02-01T05:48:19.511Z,74.57
2019-02-01T05:48:55.457Z,51.23
2019-02-01T05:49:31.047Z,58.50
2019-02-01T05:50:08.987Z,55.53
2019-02-01T05:50:44.551Z,73.93
2019-02-01T05:51:20.081Z,52.37
2019-02-01T05:51:55.894Z,60.23
2019-02-01T05:52:31.458Z,58.03
2019-02-01T05:53:07.048Z,58.23
2019-02-01T05:53:42.598Z,61.83
2019-02-01T05:54:18.148Z,61.00
2019-02-01T05:54:54.065Z,58.03
2019-02-01T05:55:29.582Z,51.20
2019-02-01T05:56:05.140Z,71.70
2019-02-01T05:56:40.720Z,59.33
2019-02-01T05:57:16.326Z,61.87
2019-02-01T05:57:51.912Z,61.27
2019-02-01T05:58:27.431Z,54.13
2019-02-01T05:59:02.984Z,53.37
2019-02-01T05:59:38.821Z,64.80
2019-02-01T06:00:17.267Z,59.17
2019-02-01T06:00:52.796Z,57.13
2019-02-01T06:01:28.383Z,54.77
2019-02-01T06:02:03.911Z,59.70
2019-02-01T06:02:39.456Z,66.07
2019-02-01T06:03:15.119Z,57.07
2019-02-01T06:03:51.527Z,58.83
2019-02-01T06:04:27.475Z,60.53
2019-02-01T06:05:03.167Z,56.37
2019-02-01T06:05:38.735Z,55.30
2019-02-01T06:06:14.548Z,63.27
2019-02-01T06:06:50.086Z,59.23
2019-02-01T06:07:25.675Z,73.60
2019-02-01T06:08:01.203Z,53.73
2019-02-01T06:08:37.247Z,60.17
2019-02-01T06:09:13.019Z,56.10
2019-02-01T06:09:48.651Z,60.00
2019-02-01T06:10:24.260Z,63.07
2019-02-01T06:10:59.810Z,54.33
2019-02-01T06:11:35.649Z,49.93
2019-02-01T06:12:11.168Z,50.47
2019-02-01T06:12:47.587Z,69.50
2019-02-01T06:13:24.098Z,63.83
2019-02-01T06:13:59.611Z,58.77
2019-02-01T06:14:35.146Z,62.73
2019-02-01T06:15:10.776Z,71.13
2019-02-01T06:15:46.307Z,56.20
2019-02-01T06:16:22.075Z,63.83
2019-02-01T06:16:57.615Z,54.40
2019-02-01T06:17:33.148Z,58.20
2019-02-01T06:18:08.713Z,62.93
2019-02-01T06:18:44.287Z,60.07
2019-02-01T06:19:20.149Z,54.60
2019-02-01T06:19:55.687Z,63.30
2019-02-01T06:20:39.883Z,80.50
2019-02-01T06:21:08.876Z,56.90
2019-02-01T06:21:44.653Z,63.97
2019-02-01T06:22:20.447Z,64.90
2019-02-01T06:22:55.965Z,61.10
2019-02-01T06:23:31.747Z,56.77
2019-02-01T06:24:07.304Z,61.97
2019-02-01T06:24:42.839Z,59.77
2019-02-01T06:25:18.410Z,62.33
2019-02-01T06:25:54.108Z,60.80
2019-02-01T06:26:29.870Z,59.47
2019-02-01T06:27:05.391Z,67.33
2019-02-01T06:27:41.158Z,59.40
2019-02-01T06:28:17.260Z,66.23
2019-02-01T06:28:52.923Z,58.83
2019-02-01T06:29:28.732Z,54.67
2019-02-01T06:30:04.548Z,60.70
2019-02-01T06:30:40.147Z,76.83
2019-02-01T06:31:15.688Z,63.80
2019-02-01T06:31:51.235Z,56.37
2019-02-01T06:32:26.773Z,57.67
2019-02-01T06:33:02.304Z,59.40
2019-02-01T06:33:37.941Z,59.07
2019-02-01T06:34:13.584Z,65.87
2019-02-01T06:34:49.140Z,65.37
2019-02-01T06:35:24.781Z,67.00
2019-02-01T06:36:00.379Z,54.77
2019-02-01T06:36:36.159Z,48.97
2019-02-01T06:37:12.001Z,64.20
2019-02-01T06:37:47.940Z,65.23
2019-02-01T06:38:23.503Z,66.73
2019-02-01T06:38:59.294Z,61.77
2019-02-01T06:39:34.895Z,63.87
2019-02-01T06:40:12.827Z,59.40
2019-02-01T06:40:48.439Z,55.37
2019-02-01T06:41:24.050Z,61.13
2019-02-01T06:41:59.695Z,64.20
2019-02-01T06:42:35.211Z,56.20
2019-02-01T06:43:11.078Z,57.73
2019-02-01T06:43:46.583Z,55.87
2019-02-01T06:44:22.141Z,59.50
2019-02-01T06:44:58.088Z,61.60
2019-02-01T06:45:33.876Z,57.87
2019-02-01T06:46:09.423Z,62.70
2019-02-01T06:46:44.935Z,55.57
2019-02-01T06:47:21.666Z,60.87
2019-02-01T06:47:57.711Z,52.87
2019-02-01T06:48:35.695Z,60.80
2019-02-01T06:49:11.203Z,56.07
2019-02-01T06:49:51.999Z,61.97
2019-02-01T06:50:53.079Z,59.53
2019-02-01T06:51:32.576Z,65.83
2019-02-01T06:52:08.123Z,64.23
2019-02-01T06:52:43.691Z,55.90
2019-02-01T06:53:26.711Z,57.67
2019-02-01T06:54:02.307Z,61.00
2019-02-01T06:54:37.830Z,62.00
2019-02-01T06:55:13.379Z,80.90
2019-02-01T06:55:49.456Z,55.67
2019-02-01T06:56:25.058Z,58.17
2019-02-01T06:57:00.700Z,57.73
2019-02-01T06:57:36.797Z,53.37
2019-02-01T06:58:12.387Z,55.00
2019-02-01T06:58:48.158Z,50.77
2019-02-01T06:59:23.689Z,59.60
2019-02-01T06:59:59.201Z,93.77
2019-02-01T07:00:37.736Z,60.87
2019-02-01T07:01:13.297Z,64.03
2019-02-01T07:01:49.091Z,52.10
2019-02-01T07:02:24.628Z,49.93
2019-02-01T07:03:00.155Z,63.63
2019-02-01T07:04:00.933Z,63.63
2019-02-01T07:04:41.747Z,56.17
2019-02-01T07:05:22.035Z,52.80
2019-02-01T07:05:57.564Z,61.20
2019-02-01T07:06:39.436Z,54.47
2019-02-01T07:07:37.095Z,56.00
2019-02-01T07:08:20.455Z,42.37
2019-02-01T07:09:14.359Z,42.67
2019-02-01T07:10:09.137Z,56.43
2019-02-01T07:11:09.859Z,57.67
2019-02-01T07:12:10.358Z,53.53
2019-02-01T07:12:55.751Z,56.27
2019-02-01T07:13:36.527Z,47.90
2019-02-01T07:14:28.982Z,61.30
2019-02-01T07:15:13.589Z,53.17
2019-02-01T07:16:23.514Z,61.50
2019-02-01T07:17:17.565Z,55.20
2019-02-01T07:18:24.427Z,68.57
2019-02-01T07:19:21.745Z,60.83
2019-02-01T07:20:15.057Z,71.60
2019-02-01T07:21:19.043Z,66.63
2019-02-01T07:22:09.016Z,57.83
2019-02-01T07:22:53.849Z,79.10
2019-02-01T07:23:51.507Z,57.33
2019-02-01T07:24:45.963Z,59.33
2019-02-01T07:25:55.920Z,56.90
2019-02-01T07:26:41.033Z,69.60
2019-02-01T07:27:26.613Z,64.47
2019-02-01T07:28:12.340Z,56.40
2019-02-01T07:29:03.290Z,57.00
2019-02-01T07:30:13.268Z,49.63
2019-02-01T07:30:55.087Z,70.23
2019-02-01T07:31:43.741Z,46.57
2019-02-01T07:32:30.804Z,45.03
2019-02-01T07:33:18.563Z,53.27
2019-02-01T07:33:57.659Z,51.47
2019-02-01T07:34:33.431Z,59.47
2019-02-01T07:35:10.450Z,58.87
2019-02-01T07:35:46.222Z,57.70
2019-02-01T07:36:21.741Z,48.23
2019-02-01T07:36:57.255Z,37.03
2019-02-01T07:37:32.782Z,43.20
2019-02-01T07:38:09.036Z,38.03
2019-02-01T07:38:44.547Z,39.50
2019-02-01T07:39:20.151Z,39.73
2019-02-01T07:39:55.945Z,45.93
2019-02-01T07:40:31.472Z,44.90
2019-02-01T07:41:07.207Z,30.03
2019-02-01T07:41:42.747Z,40.53
2019-02-01T07:42:18.287Z,30.80
2019-02-01T07:42:53.823Z,48.10
2019-02-01T07:43:29.337Z,30.27
2019-02-01T07:44:06.751Z,36.87
2019-02-01T07:44:42.348Z,31.50
2019-02-01T07:45:19.828Z,35.93
2019-02-01T07:45:55.372Z,47.40
2019-02-01T07:46:31.063Z,34.37
2019-02-01T07:47:06.580Z,46.93
2019-02-01T07:47:42.380Z,32.30
2019-02-01T07:48:17.901Z,34.83
2019-02-01T07:48:53.679Z,33.40
2019-02-01T07:49:29.481Z,36.97
2019-02-01T07:50:05.399Z,38.43
2019-02-01T07:50:41.263Z,33.50
2019-02-01T07:51:16.774Z,32.30